Time;durP1;ratioP1;P1;durP2;ratioP2;P2;SDS_P1;SDS_P2;PMS_P1;PMS_P2;Temp;Humidity;BMP_temperature;BMP_pressure;BME280_temperature;BME280_humidity;BME280_pressure;Samples;Min_cycle;Max_cycle;Signal;HPM_P1;HPM_P2
2023/08/25 00:02:18;;;;;;;11.77;8.73;;;;;;;;;;5033939;28;20090;-74
2023/08/25 00:04:44;;;;;;;9.18;7.60;;;;;;;;;;5036879;28;20091;-74
2023/08/25 00:07:10;;;;;;;9.10;6.03;;;;;;;;;;5036902;28;20112;-74
2023/08/25 00:09:36;;;;;;;7.18;5.78;;;;;;;;;;5035907;28;20478;-74
2023/08/25 00:12:03;;;;;;;9.35;5.82;;;;;;;;;;5036738;28;20471;-74
2023/08/25 00:14:29;;;;;;;8.68;5.65;;;;;;;;;;5036512;28;20021;-74
2023/08/25 00:16:55;;;;;;;13.35;6.75;;;;;;;;;;5036046;28;20036;-74
2023/08/25 00:19:21;;;;;;;9.75;6.78;;;;;;;;;;5036566;28;20022;-74
2023/08/25 00:21:47;;;;;;;10.05;7.18;;;;;;;;;;5036539;28;20032;-73
2023/08/25 00:24:13;;;;;;;12.45;7.65;;;;;;;;;;5036442;28;20017;-73
2023/08/25 00:26:39;;;;;;;11.40;7.35;;;;;;;;;;5036444;28;20026;-73
2023/08/25 00:29:06;;;;;;;10.43;7.35;;;;;;;;;;5036486;28;20072;-74
2023/08/25 00:31:32;;;;;;;10.25;6.65;;;;;;;;;;5035991;28;20083;-73
2023/08/25 00:33:58;;;;;;;15.10;6.65;;;;;;;;;;5035555;28;20041;-73
2023/08/25 00:36:24;;;;;;;7.32;5.97;;;;;;;;;;5036127;28;20034;-73
2023/08/25 00:38:51;;;;;;;7.97;6.30;;;;;;;;;;5036217;28;20030;-73
2023/08/25 00:41:17;;;;;;;10.73;5.70;;;;;;;;;;5036305;28;20065;-73
2023/08/25 00:43:43;;;;;;;9.55;5.68;;;;;;;;;;5035882;28;20025;-73
2023/08/25 00:46:10;;;;;;;8.18;5.68;;;;;;;;;;5036116;28;20034;-73
2023/08/25 00:48:37;;;;;;;9.80;6.40;;;;;;;;;;5036092;28;20435;-73
2023/08/25 00:51:05;;;;;;;10.55;6.10;;;;;;;;;;5036073;28;20418;-73
2023/08/25 00:53:31;;;;;;;12.82;6.57;;;;;;;;;;5035985;28;20083;-74
2023/08/25 00:55:57;;;;;;;8.10;5.65;;;;;;;;;;5034964;28;20045;-73
2023/08/25 00:58:23;;;;;;;10.48;6.60;;;;;;;;;;5035309;28;20082;-73
2023/08/25 01:00:50;;;;;;;10.10;6.00;;;;;;;;;;5035801;28;20026;-73
2023/08/25 01:03:16;;;;;;;9.43;6.78;;;;;;;;;;5035802;28;20534;-74
2023/08/25 01:05:42;;;;;;;10.55;5.97;;;;;;;;;;5035700;28;20029;-74
2023/08/25 01:08:08;;;;;;;9.23;6.22;;;;;;;;;;5035741;28;20044;-75
2023/08/25 01:10:45;;;;;;;8.05;5.78;;;;;;;;;;5035607;28;20540;-73
2023/08/25 01:13:17;;;;;;;8.45;5.93;;;;;;;;;;5035571;28;20048;-74
2023/08/25 01:15:45;;;;;;;6.82;5.65;;;;;;;;;;5035355;28;20167;-74
2023/08/25 01:18:29;;;;;;;7.72;5.18;;;;;;;;;;5035429;28;20111;-74
2023/08/25 01:20:56;;;;;;;6.35;5.20;;;;;;;;;;5035397;28;20022;-73
2023/08/25 01:23:33;;;;;;;8.27;6.13;;;;;;;;;;5035392;28;20084;-74
2023/08/25 01:25:59;;;;;;;7.85;5.55;;;;;;;;;;5034419;28;20029;-73
2023/08/25 01:28:26;;;;;;;9.45;5.75;;;;;;;;;;5035279;28;20034;-74
2023/08/25 01:30:55;;;;;;;8.60;6.55;;;;;;;;;;5034296;28;20025;-73
2023/08/25 01:33:22;;;;;;;14.77;8.00;;;;;;;;;;5035151;28;20029;-73
2023/08/25 01:36:08;;;;;;;14.75;8.32;;;;;;;;;;5034974;28;20037;-73
2023/08/25 01:38:44;;;;;;;11.15;7.60;;;;;;;;;;5034633;28;20555;-74
2023/08/25 01:41:24;;;;;;;8.75;7.38;;;;;;;;;;5035324;28;20032;-73
2023/08/25 01:43:51;;;;;;;11.88;6.85;;;;;;;;;;5034917;28;20026;-73
2023/08/25 01:46:18;;;;;;;9.27;6.30;;;;;;;;;;5035046;28;20064;-73
2023/08/25 01:48:46;;;;;;;6.93;5.40;;;;;;;;;;5034100;28;20065;-73
2023/08/25 01:51:14;;;;;;;9.13;5.35;;;;;;;;;;5034884;28;20025;-73
2023/08/25 01:53:42;;;;;;;6.53;4.57;;;;;;;;;;5034807;28;20545;-73
2023/08/25 01:56:08;;;;;;;9.73;4.97;;;;;;;;;;5033911;28;20057;-73
2023/08/25 01:58:34;;;;;;;7.72;5.50;;;;;;;;;;5034773;28;20032;-73
2023/08/25 02:01:00;;;;;;;8.30;5.32;;;;;;;;;;5034735;28;20079;-73
2023/08/25 02:03:26;;;;;;;6.68;4.78;;;;;;;;;;5034949;28;20030;-73
2023/08/25 02:05:52;;;;;;;6.05;4.88;;;;;;;;;;5034614;28;20033;-73
2023/08/25 02:08:18;;;;;;;7.53;4.57;;;;;;;;;;5034794;28;20372;-73
2023/08/25 02:10:44;;;;;;;7.88;5.00;;;;;;;;;;5034596;28;20498;-74
2023/08/25 02:13:10;;;;;;;11.85;5.28;;;;;;;;;;5034576;28;20038;-73
2023/08/25 02:15:36;;;;;;;11.85;5.40;;;;;;;;;;5034385;28;20411;-73
2023/08/25 02:18:02;;;;;;;8.55;5.25;;;;;;;;;;5034254;28;20025;-73
2023/08/25 02:20:28;;;;;;;8.82;5.82;;;;;;;;;;5033968;28;20045;-72
2023/08/25 02:22:54;;;;;;;12.75;5.60;;;;;;;;;;5034720;28;20022;-73
2023/08/25 02:25:20;;;;;;;10.68;6.05;;;;;;;;;;5033696;28;20471;-72
2023/08/25 02:27:46;;;;;;;7.60;5.57;;;;;;;;;;5034380;28;20056;-73
2023/08/25 02:30:12;;;;;;;7.25;5.38;;;;;;;;;;5034135;28;20136;-73
2023/08/25 02:32:38;;;;;;;10.93;5.70;;;;;;;;;;5033370;28;20021;-73
2023/08/25 02:35:04;;;;;;;9.52;5.85;;;;;;;;;;5034019;28;20025;-73
2023/08/25 02:37:30;;;;;;;9.40;5.95;;;;;;;;;;5034098;28;20021;-73
2023/08/25 02:39:56;;;;;;;9.30;5.93;;;;;;;;;;5034110;28;20428;-73
2023/08/25 02:42:22;;;;;;;13.25;5.88;;;;;;;;;;5033523;28;20026;-73
2023/08/25 02:44:48;;;;;;;8.23;6.07;;;;;;;;;;5034079;28;20021;-73
2023/08/25 02:47:14;;;;;;;9.07;6.70;;;;;;;;;;5033466;28;20072;-74
2023/08/25 02:49:40;;;;;;;10.90;6.75;;;;;;;;;;5033593;28;20025;-73
2023/08/25 02:52:07;;;;;;;11.85;8.70;;;;;;;;;;5033824;28;20112;-73
2023/08/25 02:54:33;;;;;;;10.00;7.78;;;;;;;;;;5033373;28;20041;-73
2023/08/25 02:56:59;;;;;;;10.77;8.35;;;;;;;;;;5034143;28;20025;-73
2023/08/25 02:59:25;;;;;;;15.75;9.07;;;;;;;;;;5033946;28;20029;-73
2023/08/25 03:01:51;;;;;;;9.43;8.52;;;;;;;;;;5033853;28;20022;-73
2023/08/25 03:04:17;;;;;;;13.15;8.23;;;;;;;;;;5033851;28;20033;-73
2023/08/25 03:06:44;;;;;;;14.40;9.32;;;;;;;;;;5033770;28;20037;-73
2023/08/25 03:09:10;;;;;;;15.07;11.40;;;;;;;;;;5033823;28;20036;-72
2023/08/25 03:11:36;;;;;;;15.10;11.05;;;;;;;;;;5033405;28;20021;-73
2023/08/25 03:14:02;;;;;;;13.85;11.65;;;;;;;;;;5033785;28;20483;-74
2023/08/25 03:16:28;;;;;;;17.15;10.45;;;;;;;;;;5033456;28;20065;-73
2023/08/25 03:18:54;;;;;;;11.80;9.23;;;;;;;;;;5033622;28;20051;-72
2023/08/25 03:21:20;;;;;;;13.95;10.10;;;;;;;;;;5033653;28;20467;-72
2023/08/25 03:23:46;;;;;;;15.82;8.90;;;;;;;;;;5033733;28;20108;-72
2023/08/25 03:26:12;;;;;;;10.20;8.15;;;;;;;;;;5033640;28;20057;-72
2023/08/25 03:28:38;;;;;;;11.98;9.15;;;;;;;;;;5032616;28;20029;-72
2023/08/25 03:31:04;;;;;;;13.60;9.75;;;;;;;;;;5033650;28;20038;-72
2023/08/25 03:33:30;;;;;;;15.57;10.30;;;;;;;;;;5033776;28;20475;-73
2023/08/25 03:35:56;;;;;;;15.15;9.48;;;;;;;;;;5033555;28;20030;-72
2023/08/25 03:38:22;;;;;;;17.23;12.23;;;;;;;;;;5036095;28;20036;-72
2023/08/25 03:40:48;;;;;;;17.08;11.20;;;;;;;;;;5037598;28;20412;-73
2023/08/25 03:43:14;;;;;;;19.27;13.25;;;;;;;;;;5037591;28;20034;-73
2023/08/25 03:45:40;;;;;;;17.75;14.27;;;;;;;;;;5037352;28;20038;-71
2023/08/25 03:48:06;;;;;;;14.77;11.23;;;;;;;;;;5036879;28;20151;-72
2023/08/25 03:50:32;;;;;;;15.48;10.80;;;;;;;;;;5037100;28;20068;-71
2023/08/25 03:52:58;;;;;;;15.27;11.20;;;;;;;;;;5037245;28;20034;-72
2023/08/25 03:55:24;;;;;;;15.52;11.38;;;;;;;;;;5035902;28;20404;-71
2023/08/25 03:57:50;;;;;;;14.98;11.10;;;;;;;;;;5036891;28;20021;-72
2023/08/25 04:00:16;;;;;;;15.23;11.07;;;;;;;;;;5036998;28;20044;-72
2023/08/25 04:02:42;;;;;;;18.08;11.82;;;;;;;;;;5036945;28;20452;-71
2023/08/25 04:05:08;;;;;;;16.58;13.20;;;;;;;;;;5036813;28;20026;-71
2023/08/25 04:07:34;;;;;;;19.90;14.00;;;;;;;;;;5036773;28;20032;-72
2023/08/25 04:10:00;;;;;;;15.73;11.75;;;;;;;;;;5036694;28;20378;-72
2023/08/25 04:12:26;;;;;;;15.02;11.77;;;;;;;;;;5036893;28;20046;-72
2023/08/25 04:14:52;;;;;;;19.00;12.23;;;;;;;;;;5036072;28;20112;-72
2023/08/25 04:17:18;;;;;;;19.85;14.15;;;;;;;;;;5036424;28;20451;-72
2023/08/25 04:19:44;;;;;;;19.15;14.40;;;;;;;;;;5035692;28;20025;-72
2023/08/25 04:22:10;;;;;;;19.77;14.65;;;;;;;;;;5035627;28;20078;-72
2023/08/25 04:24:36;;;;;;;17.15;13.30;;;;;;;;;;5036558;28;20025;-72
2023/08/25 04:27:02;;;;;;;15.68;13.00;;;;;;;;;;5036890;28;20080;-72
2023/08/25 04:29:28;;;;;;;14.88;11.90;;;;;;;;;;5036377;28;20112;-72
2023/08/25 04:31:54;;;;;;;12.10;10.32;;;;;;;;;;5035910;28;20154;-71
2023/08/25 04:34:20;;;;;;;12.80;10.98;;;;;;;;;;5036310;28;20031;-72
2023/08/25 04:36:46;;;;;;;13.48;11.52;;;;;;;;;;5036344;28;20033;-72
2023/08/25 04:39:13;;;;;;;19.98;13.98;;;;;;;;;;5036522;28;20017;-72
2023/08/25 04:41:40;;;;;;;21.73;14.63;;;;;;;;;;5036167;28;20022;-72
2023/08/25 04:44:06;;;;;;;14.85;12.52;;;;;;;;;;5036242;28;20025;-73
2023/08/25 04:46:32;;;;;;;16.77;12.50;;;;;;;;;;5036151;28;20088;-72
2023/08/25 04:48:58;;;;;;;17.30;13.98;;;;;;;;;;5035659;28;20044;-73
2023/08/25 04:51:24;;;;;;;17.30;12.18;;;;;;;;;;5036116;28;20033;-73
2023/08/25 04:53:50;;;;;;;15.15;12.13;;;;;;;;;;5035881;28;20030;-72
2023/08/25 04:56:17;;;;;;;17.40;13.32;;;;;;;;;;5034879;28;20048;-72
2023/08/25 04:58:43;;;;;;;18.33;12.48;;;;;;;;;;5035964;28;20066;-72
2023/08/25 05:01:09;;;;;;;18.48;13.75;;;;;;;;;;5035726;28;20025;-72
2023/08/25 05:03:35;;;;;;;20.10;14.48;;;;;;;;;;5035810;28;20032;-73
2023/08/25 05:06:01;;;;;;;21.55;15.50;;;;;;;;;;5035248;28;20034;-73
2023/08/25 05:08:27;;;;;;;17.65;14.25;;;;;;;;;;5035845;28;20053;-73
2023/08/25 05:10:53;;;;;;;18.27;13.88;;;;;;;;;;5035784;28;20497;-73
2023/08/25 05:13:19;;;;;;;18.77;13.70;;;;;;;;;;5035504;28;20021;-73
2023/08/25 05:15:45;;;;;;;17.35;13.43;;;;;;;;;;5035535;28;20034;-73
2023/08/25 05:18:11;;;;;;;17.33;13.65;;;;;;;;;;5035354;28;20021;-73
2023/08/25 05:20:37;;;;;;;18.92;13.35;;;;;;;;;;5035416;28;20399;-74
2023/08/25 05:23:03;;;;;;;19.23;14.35;;;;;;;;;;5035523;28;20030;-74
2023/08/25 05:25:29;;;;;;;14.98;12.07;;;;;;;;;;5034793;28;20034;-73
2023/08/25 05:27:55;;;;;;;20.63;14.27;;;;;;;;;;5035184;28;20480;-73
2023/08/25 05:30:21;;;;;;;17.00;13.10;;;;;;;;;;5035589;28;20036;-73
2023/08/25 05:32:47;;;;;;;20.95;13.45;;;;;;;;;;5035344;28;20469;-74
2023/08/25 05:35:13;;;;;;;13.98;11.52;;;;;;;;;;5035164;28;20087;-73
2023/08/25 05:37:40;;;;;;;17.77;12.15;;;;;;;;;;5035140;28;20026;-73
2023/08/25 05:40:07;;;;;;;17.45;11.43;;;;;;;;;;5034575;28;20029;-72
2023/08/25 05:42:35;;;;;;;16.73;11.80;;;;;;;;;;5035010;28;20167;-72
2023/08/25 05:45:03;;;;;;;18.17;12.35;;;;;;;;;;5035253;28;20483;-73
2023/08/25 05:47:29;;;;;;;12.68;10.63;;;;;;;;;;5034923;28;20018;-73
2023/08/25 05:49:54;;;;;;;16.35;10.90;;;;;;;;;;5034498;28;20028;-73
2023/08/25 05:52:20;;;;;;;14.65;10.25;;;;;;;;;;5035131;28;20382;-73
2023/08/25 05:54:47;;;;;;;12.88;9.45;;;;;;;;;;5034358;28;20049;-73
2023/08/25 05:57:13;;;;;;;16.17;8.98;;;;;;;;;;5034751;28;20022;-73
2023/08/25 05:59:38;;;;;;;12.38;9.45;;;;;;;;;;5034028;28;20036;-73
2023/08/25 06:02:05;;;;;;;11.02;7.97;;;;;;;;;;5034565;28;20036;-73
2023/08/25 06:04:31;;;;;;;12.38;8.88;;;;;;;;;;5034245;28;20028;-71
2023/08/25 06:06:57;;;;;;;13.00;8.18;;;;;;;;;;5017511;28;20033;-72
2023/08/25 06:09:23;;;;;;;14.65;9.05;;;;;;;;;;5016388;28;20415;-73
2023/08/25 06:11:49;;;;;;;11.60;9.68;;;;;;;;;;5024311;28;20029;-71
2023/08/25 06:14:15;;;;;;;13.50;10.15;;;;;;;;;;5023430;28;20538;-71
2023/08/25 06:16:41;;;;;;;14.00;10.25;;;;;;;;;;5052010;28;20163;-70
2023/08/25 06:19:08;;;;;;;13.73;10.48;;;;;;;;;;5036649;28;20026;-70
2023/08/25 06:21:34;;;;;;;14.57;10.32;;;;;;;;;;5034424;28;20025;-70
2023/08/25 06:24:01;;;;;;;12.40;9.75;;;;;;;;;;5026496;28;20104;-70
2023/08/25 06:26:27;;;;;;;16.98;11.13;;;;;;;;;;5028288;28;20026;-70
2023/08/25 06:28:54;;;;;;;13.27;10.27;;;;;;;;;;5022245;28;20479;-70
2023/08/25 06:31:20;;;;;;;13.20;11.38;;;;;;;;;;5016673;28;20127;-69
2023/08/25 06:33:46;;;;;;;15.45;10.35;;;;;;;;;;5026995;28;20050;-69
2023/08/25 06:36:12;;;;;;;15.43;11.00;;;;;;;;;;5023880;28;20052;-69
2023/08/25 06:38:39;;;;;;;14.07;10.48;;;;;;;;;;5025828;28;20025;-69
2023/08/25 06:41:05;;;;;;;18.00;12.43;;;;;;;;;;5033019;28;20446;-70
2023/08/25 06:43:31;;;;;;;16.27;13.40;;;;;;;;;;5033974;28;20105;-70
2023/08/25 06:45:58;;;;;;;19.85;14.18;;;;;;;;;;5033209;28;20037;-70
2023/08/25 06:48:25;;;;;;;19.55;14.20;;;;;;;;;;5033483;28;20029;-70
2023/08/25 06:50:51;;;;;;;16.50;14.65;;;;;;;;;;5032608;28;20030;-69
2023/08/25 06:53:17;;;;;;;20.00;14.82;;;;;;;;;;5033452;28;20029;-70
2023/08/25 06:55:43;;;;;;;19.23;14.60;;;;;;;;;;5032756;28;20128;-70
2023/08/25 06:58:09;;;;;;;18.13;14.73;;;;;;;;;;5033491;28;20456;-69
2023/08/25 07:00:35;;;;;;;23.10;16.95;;;;;;;;;;5033637;28;20506;-70
2023/08/25 07:03:03;;;;;;;21.15;18.45;;;;;;;;;;5032422;28;20026;-70
2023/08/25 07:05:29;;;;;;;20.23;15.90;;;;;;;;;;5031902;28;20376;-69
2023/08/25 07:07:55;;;;;;;23.35;17.38;;;;;;;;;;5032016;28;20040;-69
2023/08/25 07:10:21;;;;;;;17.92;15.48;;;;;;;;;;5032150;28;20498;-75
2023/08/25 07:12:48;;;;;;;23.48;15.00;;;;;;;;;;5044597;28;20481;-70
2023/08/25 07:15:14;;;;;;;22.73;15.70;;;;;;;;;;5037656;28;20497;-70
2023/08/25 07:17:40;;;;;;;23.30;14.73;;;;;;;;;;5035040;28;20053;-69
2023/08/25 07:20:08;;;;;;;20.10;15.48;;;;;;;;;;5025250;28;20038;-71
2023/08/25 07:22:34;;;;;;;19.85;15.10;;;;;;;;;;5019722;28;20021;-70
2023/08/25 07:25:00;;;;;;;22.77;15.10;;;;;;;;;;5027801;28;20040;-70
2023/08/25 07:27:26;;;;;;;22.90;14.73;;;;;;;;;;5021259;28;20030;-71
2023/08/25 07:29:53;;;;;;;22.73;14.32;;;;;;;;;;5021828;28;20043;-70
2023/08/25 07:32:19;;;;;;;20.63;13.30;;;;;;;;;;5034010;28;20083;-71
2023/08/25 07:34:45;;;;;;;17.48;13.32;;;;;;;;;;5048497;28;20028;-70
2023/08/25 07:37:12;;;;;;;18.90;13.50;;;;;;;;;;5030462;28;20100;-70
2023/08/25 07:39:39;;;;;;;21.77;14.43;;;;;;;;;;5033441;28;20614;-70
2023/08/25 07:42:06;;;;;;;21.73;14.93;;;;;;;;;;5025145;28;20061;-70
2023/08/25 07:44:32;;;;;;;23.85;14.98;;;;;;;;;;5033710;28;20025;-69
2023/08/25 07:46:58;;;;;;;20.70;14.88;;;;;;;;;;5028781;28;20446;-69
2023/08/25 07:49:24;;;;;;;24.48;15.98;;;;;;;;;;5034062;28;20434;-71
2023/08/25 07:51:50;;;;;;;19.55;13.13;;;;;;;;;;5016721;28;20126;-69
2023/08/25 07:54:16;;;;;;;21.75;13.20;;;;;;;;;;5025803;28;20040;-70
2023/08/25 07:56:42;;;;;;;21.13;14.40;;;;;;;;;;5021658;28;20033;-69
2023/08/25 07:59:10;;;;;;;25.67;13.73;;;;;;;;;;5029506;28;20029;-69
2023/08/25 08:01:36;;;;;;;22.58;13.65;;;;;;;;;;5039535;28;20475;-69
2023/08/25 08:04:03;;;;;;;24.27;13.63;;;;;;;;;;5050375;28;20036;-69
2023/08/25 08:06:29;;;;;;;19.42;13.63;;;;;;;;;;5033273;28;20025;-69
2023/08/25 08:08:56;;;;;;;18.83;13.88;;;;;;;;;;5027442;28;20602;-69
2023/08/25 08:11:21;;;;;;;23.20;13.38;;;;;;;;;;5023477;28;20494;-72
2023/08/25 08:13:47;;;;;;;19.50;12.80;;;;;;;;;;5018648;28;20026;-70
2023/08/25 08:16:13;;;;;;;18.13;12.38;;;;;;;;;;5031852;28;20077;-70
2023/08/25 08:18:40;;;;;;;21.63;12.60;;;;;;;;;;5035454;28;20033;-71
2023/08/25 08:21:06;;;;;;;16.67;11.88;;;;;;;;;;5027418;28;20053;-70
2023/08/25 08:23:33;;;;;;;25.95;13.57;;;;;;;;;;5029516;28;20108;-71
2023/08/25 08:25:58;;;;;;;24.50;12.90;;;;;;;;;;5031537;28;20041;-71
2023/08/25 08:28:25;;;;;;;25.77;13.80;;;;;;;;;;5035865;28;20071;-72
2023/08/25 08:30:50;;;;;;;23.00;12.65;;;;;;;;;;5028258;28;20080;-71
2023/08/25 08:33:17;;;;;;;17.83;12.50;;;;;;;;;;5030345;28;20430;-73
2023/08/25 08:35:44;;;;;;;23.10;12.07;;;;;;;;;;5030083;28;20034;-71
2023/08/25 08:38:10;;;;;;;18.92;11.77;;;;;;;;;;5034420;28;20071;-71
2023/08/25 08:40:36;;;;;;;19.83;11.18;;;;;;;;;;5035648;28;20036;-70
2023/08/25 08:43:03;;;;;;;22.70;12.05;;;;;;;;;;5037736;28;20045;-74
2023/08/25 08:45:34;;;;;;;18.90;11.60;;;;;;;;;;5031487;28;20040;-73
2023/08/25 08:48:03;;;;;;;19.85;11.50;;;;;;;;;;5016188;28;20549;-75
2023/08/25 08:50:29;;;;;;;16.13;10.38;;;;;;;;;;5015117;28;20034;-71
2023/08/25 08:52:56;;;;;;;16.55;11.82;;;;;;;;;;5026132;28;20034;-71
2023/08/25 08:55:22;;;;;;;15.27;11.00;;;;;;;;;;5014404;28;20050;-70
2023/08/25 08:57:49;;;;;;;21.88;13.73;;;;;;;;;;5033577;28;20503;-71
2023/08/25 09:00:18;;;;;;;19.02;13.73;;;;;;;;;;5032305;28;20488;-71
2023/08/25 09:02:45;;;;;;;22.50;14.90;;;;;;;;;;5025855;28;20120;-71
2023/08/25 09:05:12;;;;;;;24.63;16.63;;;;;;;;;;5016609;28;20404;-71
2023/08/25 09:07:39;;;;;;;27.75;16.83;;;;;;;;;;5028706;28;20033;-71
2023/08/25 09:10:05;;;;;;;24.88;16.63;;;;;;;;;;5027527;28;20033;-71
2023/08/25 09:12:31;;;;;;;31.13;19.88;;;;;;;;;;5019247;28;20038;-71
2023/08/25 09:14:57;;;;;;;27.88;20.30;;;;;;;;;;5025975;28;20064;-71
2023/08/25 09:17:23;;;;;;;31.77;21.92;;;20.50;99.90;;;;;;5034814;28;20056;-70
2023/08/25 09:19:49;;;;;;;34.20;23.90;;;19.90;99.90;;;;;;5022834;28;20026;-70
2023/08/25 09:22:17;;;;;;;35.47;25.63;;;19.70;99.90;;;;;;5019032;28;20406;-71
2023/08/25 09:24:43;;;;;;;37.30;26.35;;;19.60;99.90;;;;;;5029675;28;20025;-71
2023/08/25 09:27:25;;;;;;;41.83;28.50;;;19.60;99.90;;;;;;5021447;28;20026;-70
2023/08/25 09:30:03;;;;;;;45.80;29.48;;;19.50;99.90;;;;;;5020973;28;20037;-68
2023/08/25 09:32:29;;;;;;;37.80;27.27;;;19.50;99.90;;;;;;5014929;28;20084;-69
2023/08/25 09:34:55;;;;;;;39.13;27.80;;;19.40;99.90;;;;;;5018671;28;20072;-68
2023/08/25 09:37:21;;;;;;;45.22;28.77;;;19.40;99.90;;;;;;5034125;28;20025;-69
2023/08/25 09:39:47;;;;;;;41.83;28.33;;;19.40;99.90;;;;;;5024889;28;20384;-68
2023/08/25 09:42:12;;;;;;;45.72;29.88;;;19.50;99.90;;;;;;5031514;28;20363;-69
2023/08/25 09:44:38;;;;;;;39.03;27.27;;;19.60;99.90;;;;;;5033307;28;20029;-69
2023/08/25 09:47:06;;;;;;;36.22;25.70;;;19.60;99.90;;;;;;5022541;28;20040;-70
2023/08/25 09:49:40;;;;;;;36.78;25.48;;;19.60;99.90;;;;;;5018881;28;20032;-67
2023/08/25 09:52:07;;;;;;;41.15;27.20;;;19.60;99.90;;;;;;5027209;28;20036;-68
2023/08/25 09:54:34;;;;;;;43.22;29.90;;;19.70;99.90;;;;;;5033691;28;20046;-69
2023/08/25 09:57:00;;;;;;;45.60;30.30;;;19.70;99.90;;;;;;5033772;28;20466;-68
2023/08/25 09:59:27;;;;;;;49.38;31.42;;;;;;;;;;5029748;28;20446;-68
2023/08/25 10:01:53;;;;;;;45.72;28.63;;;19.70;99.90;;;;;;5022785;28;20455;-68
2023/08/25 10:04:19;;;;;;;47.20;30.70;;;19.70;99.90;;;;;;5032393;28;20026;-69
2023/08/25 10:06:47;;;;;;;45.33;30.63;;;19.80;99.90;;;;;;5033563;28;20438;-69
2023/08/25 10:09:12;;;;;;;44.75;28.98;;;19.70;99.90;;;;;;5025014;28;20029;-70
2023/08/25 10:11:41;;;;;;;44.85;29.13;;;19.80;99.90;;;;;;5029300;28;20044;-71
2023/08/25 10:14:10;;;;;;;42.47;28.95;;;18.50;99.90;;;;;;5025288;28;20053;-71
2023/08/25 10:16:53;;;;;;;36.00;27.23;;;19.80;99.90;;;;;;5029600;28;20103;-70
2023/08/25 10:19:24;;;;;;;35.30;26.92;;;19.80;99.90;;;;;;5040368;28;20029;-70
2023/08/25 10:21:51;;;;;;;38.70;25.17;;;;;;;;;;5027295;28;20040;-71
2023/08/25 10:24:19;;;;;;;33.13;23.27;;;;;;;;;;5027533;28;20032;-70
2023/08/25 10:26:46;;;;;;;30.92;22.45;;;;;;;;;;5023141;28;20136;-71
2023/08/25 10:29:15;;;;;;;26.70;19.70;;;20.40;99.90;;;;;;5028664;28;20121;-71
2023/08/25 10:31:51;;;;;;;28.67;19.70;;;;;;;;;;5019301;28;20038;-72
2023/08/25 10:34:35;;;;;;;26.77;18.65;;;20.60;99.90;;;;;;5022511;28;20082;-72
2023/08/25 10:37:04;;;;;;;22.48;17.05;;;20.70;99.90;;;;;;5033180;28;20471;-72
2023/08/25 10:39:50;;;;;;;23.17;17.13;;;20.60;99.90;;;;;;5024232;28;21429;-71
2023/08/25 10:42:23;;;;;;;25.00;17.27;;;20.30;99.90;;;;;;5032181;28;20033;-71
2023/08/25 10:44:56;;;;;;;21.60;17.77;;;20.00;99.90;;;;;;5020257;28;20017;-71
2023/08/25 10:47:25;;;;;;;27.98;18.67;;;;;;;;;;5028696;28;20029;-70
2023/08/25 10:50:08;;;;;;;25.27;18.13;;;19.90;99.90;;;;;;5022010;28;20499;-70
2023/08/25 10:52:44;;;;;;;25.50;18.20;;;19.60;99.90;;;;;;5032612;28;20033;-72
2023/08/25 10:55:28;;;;;;;29.48;20.25;;;;;;;;;;5021703;28;20506;-71
2023/08/25 10:58:04;;;;;;;29.80;18.20;;;;;;;;;;5029572;28;20041;-70
2023/08/25 11:00:32;;;;;;;21.35;15.43;;;;;;;;;;5029518;28;20487;-70
2023/08/25 11:03:02;;;;;;;22.17;15.90;;;19.60;99.90;;;;;;5029014;28;20025;-71
2023/08/25 11:08:07;;;;;;;20.65;15.35;;;;;;;;;;5067607;28;20126;-71
2023/08/25 11:10:35;;;;;;;22.58;17.00;;;19.70;99.90;;;;;;5049774;28;20029;-71
2023/08/25 11:13:06;;;;;;;22.27;15.40;;;;;;;;;;5049908;28;20039;-71
2023/08/25 11:15:37;;;;;;;21.52;16.15;;;19.70;99.90;;;;;;5047344;28;20037;-71
2023/08/25 11:18:03;;;;;;;25.73;17.65;;;19.70;99.90;;;;;;5045790;28;20032;-71
2023/08/25 11:20:30;;;;;;;28.27;17.48;;;;;;;;;;5046479;28;20084;-71
2023/08/25 11:23:00;;;;;;;25.27;18.38;;;;;;;;;;5034747;28;20091;-70
2023/08/25 11:25:27;;;;;;;27.85;18.83;;;19.60;99.90;;;;;;5057464;28;20020;-71
2023/08/25 11:27:54;;;;;;;23.83;18.80;;;;;;;;;;5051500;28;20044;-71
2023/08/25 11:30:21;;;;;;;26.77;18.33;;;;;;;;;;5053416;28;20026;-70
2023/08/25 11:32:47;;;;;;;21.67;16.92;;;;;;;;;;5041950;28;20029;-71
2023/08/25 11:35:13;;;;;;;27.90;18.67;;;;;;;;;;5049018;28;22077;-71
2023/08/25 11:37:40;;;;;;;27.75;19.73;;;;;;;;;;5043401;28;20034;-72
2023/08/25 11:40:12;;;;;;;29.95;20.15;;;;;;;;;;5047706;28;20041;-70
2023/08/25 11:42:38;;;;;;;26.67;18.90;;;;;;;;;;5056457;28;20027;-70
2023/08/25 11:45:08;;;;;;;25.65;16.38;;;;;;;;;;5051790;28;20029;-69
2023/08/25 11:47:34;;;;;;;19.73;15.00;;;;;;;;;;5041940;28;20029;-70
2023/08/25 11:50:01;;;;;;;16.63;11.90;;;;;;;;;;5050879;28;20087;-71
2023/08/25 11:52:28;;;;;;;17.48;12.88;;;;;;;;;;5045928;28;20494;-70
2023/08/25 11:54:54;;;;;;;15.43;12.00;;;;;;;;;;5047430;28;20021;-70
2023/08/25 11:57:20;;;;;;;15.45;11.43;;;;;;;;;;5046293;28;20026;-71
2023/08/25 11:59:46;;;;;;;17.30;12.27;;;;;;;;;;5049462;28;20017;-70
2023/08/25 12:02:16;;;;;;;14.02;10.55;;;;;;;;;;5050446;28;20033;-70
2023/08/25 12:04:53;;;;;;;19.58;9.35;;;;;;;;;;5043653;28;20110;-70
2023/08/25 12:07:22;;;;;;;12.52;8.63;;;;;;;;;;5044488;28;20157;-70
2023/08/25 12:09:54;;;;;;;13.48;8.80;;;;;;;;;;5054134;28;20108;-69
2023/08/25 12:12:21;;;;;;;12.02;9.20;;;;;;;;;;5048298;28;20025;-70
2023/08/25 12:14:50;;;;;;;15.23;9.90;;;;;;;;;;5052197;28;20025;-70
2023/08/25 12:17:31;;;;;;;10.15;7.50;;;;;;;;;;5045134;28;20048;-70
2023/08/25 12:19:57;;;;;;;12.52;7.68;;;;;;;;;;5017019;28;20103;-70
2023/08/25 12:22:25;;;;;;;12.40;6.55;;;;;;;;;;5019974;28;20391;-71
2023/08/25 12:24:52;;;;;;;9.85;6.43;;;;;;;;;;5029416;28;20438;-70
2023/08/25 12:27:18;;;;;;;9.23;6.25;;;;;;;;;;5042430;28;20026;-70
2023/08/25 12:29:45;;;;;;;7.97;5.63;;;;;;;;;;5018932;28;20040;-70
2023/08/25 12:32:11;;;;;;;8.73;5.50;;;;;;;;;;5034084;28;20025;-70
2023/08/25 12:34:37;;;;;;;6.00;4.53;;;;;;;;;;5033746;28;20030;-70
2023/08/25 12:37:03;;;;;;;7.78;5.10;;;;;;;;;;5036900;28;20365;-70
2023/08/25 12:39:30;;;;;;;8.85;5.18;;;;;;;;;;5031456;28;20046;-71
2023/08/25 12:41:56;;;;;;;7.22;5.25;;;;;;;;;;5033154;28;20514;-70
2023/08/25 12:44:22;;;;;;;7.57;5.78;;;;;;;;;;5039696;28;20036;-70
2023/08/25 12:46:50;;;;;;;9.20;5.40;;;;;;;;;;5028006;28;20086;-70
2023/08/25 12:49:17;;;;;;;6.80;5.10;;;;;;;;;;5037295;28;20021;-70
2023/08/25 12:51:45;;;;;;;7.68;4.90;;;;;;;;;;5032214;28;20058;-70
2023/08/25 12:54:14;;;;;;;7.03;4.97;;;;;;;;;;5031966;28;20395;-70
2023/08/25 12:56:44;;;;;;;9.70;5.00;;;;;;;;;;5040246;28;20033;-70
2023/08/25 12:59:11;;;;;;;7.20;5.22;;;;;;;;;;5037764;28;20037;-71
2023/08/25 13:01:38;;;;;;;8.77;5.22;;;;;;;;;;5030696;28;20025;-71
2023/08/25 13:04:07;;;;;;;7.82;5.10;;;;;;;;;;5035492;28;20057;-70
2023/08/25 13:06:35;;;;;;;8.18;5.43;;;;;;;;;;5037870;28;20164;-70
2023/08/25 13:09:04;;;;;;;6.75;4.80;;;;;;;;;;5023709;28;20025;-70
2023/08/25 13:11:31;;;;;;;8.32;4.80;;;;;;;;;;5029695;28;20112;-70
2023/08/25 13:13:59;;;;;;;4.93;3.75;;;;;;;;;;5036444;28;20438;-71
2023/08/25 13:16:26;;;;;;;4.72;3.22;;;;;;;;;;5040484;28;20026;-70
2023/08/25 13:18:53;;;;;;;7.05;3.30;;;;;;;;;;5035042;28;20386;-70
2023/08/25 13:21:22;;;;;;;5.47;3.17;;;;;;;;;;5032637;28;20045;-70
2023/08/25 13:23:50;;;;;;;6.60;3.10;;;;;;;;;;5030113;28;20498;-72
2023/08/25 13:26:21;;;;;;;6.00;3.10;;;;;;;;;;5032429;28;20083;-70
2023/08/25 13:28:50;;;;;;;5.60;2.70;;;;;;;;;;5033345;28;20112;-70
2023/08/25 13:31:17;;;;;;;6.97;2.70;;;;;;;;;;5033713;28;20112;-71
2023/08/25 13:33:45;;;;;;;3.75;2.33;;;;;;;;;;5035367;28;20057;-71
2023/08/25 13:36:13;;;;;;;3.65;2.40;;;;;;;;;;5035216;28;20064;-71
2023/08/25 13:38:40;;;;;;;8.45;2.80;;;;;;;;;;5035546;28;20041;-70
2023/08/25 13:41:08;;;;;;;4.35;2.40;;;;;;;;;;5034829;28;20018;-71
2023/08/25 13:43:38;;;;;;;4.45;2.40;;;;;;;;;;5034874;28;20143;-71
2023/08/25 13:46:05;;;;;;;4.70;2.90;;;;;;;;;;5034944;28;20432;-71
2023/08/25 13:48:33;;;;;;;6.88;2.53;;;;;;;;;;5034539;28;20037;-71
2023/08/25 13:51:01;;;;;;;5.07;2.55;;;;;;;;;;5034166;28;20048;-71
2023/08/25 13:53:28;;;;;;;5.97;2.85;;;;;;;;;;5034240;28;20095;-71
2023/08/25 13:55:56;;;;;;;3.47;2.70;;;;;;;;;;5033924;28;20018;-71
2023/08/25 13:58:22;;;;;;;3.72;2.67;;;;;;;;;;5033093;28;20474;-71
2023/08/25 14:00:48;;;;;;;5.30;2.70;;;;;;;;;;5034020;28;20052;-71
2023/08/25 14:03:14;;;;;;;6.03;2.80;;;;;;;;;;5034856;28;20108;-71
2023/08/25 14:05:40;;;;;;;5.15;2.88;;;;;;;;;;5032078;28;20037;-71
2023/08/25 14:08:06;;;;;;;5.15;2.65;;;;;;;;;;5012963;28;20129;-71
2023/08/25 14:10:32;;;;;;;6.97;2.78;;;;;;;;;;5014068;28;20030;-71
2023/08/25 14:12:58;;;;;;;2.83;2.33;;;;;;;;;;5013475;28;20555;-71
2023/08/25 14:15:24;;;;;;;4.07;2.58;;;;;;;;;;5014421;28;20050;-71